createdAt,value
2023-03-26T00:00:08.532Z,26.3
2023-03-26T00:01:10.355Z,26.3
2023-03-26T00:02:12.358Z,26.3
2023-03-26T00:03:15.034Z,26.3
2023-03-26T00:04:16.860Z,26.3
2023-03-26T00:05:18.785Z,26.3
2023-03-26T00:06:20.821Z,26.3
2023-03-26T00:07:22.756Z,26.3
2023-03-26T00:08:24.564Z,26.3
2023-03-26T00:09:26.503Z,26.3
2023-03-26T00:10:28.269Z,26.3
2023-03-26T00:11:30.115Z,26.3
2023-03-26T00:12:31.839Z,26.3
2023-03-26T00:13:33.717Z,26.3
2023-03-26T00:14:35.647Z,26.3
2023-03-26T00:15:37.375Z,26.3
2023-03-26T00:16:39.316Z,26.3
2023-03-26T00:17:41.468Z,26.3
2023-03-26T00:18:43.606Z,26.3
2023-03-26T00:19:45.890Z,26.3
2023-03-26T00:20:47.797Z,26.3
2023-03-26T00:21:49.704Z,26.3
2023-03-26T00:22:51.591Z,26.3
2023-03-26T00:23:53.432Z,26.2
2023-03-26T00:24:55.330Z,26.2
2023-03-26T00:25:57.179Z,26.2
2023-03-26T00:26:59.107Z,26.2
2023-03-26T00:28:01.046Z,26.2
2023-03-26T00:29:02.948Z,26.2
2023-03-26T00:30:05.376Z,26.2
2023-03-26T00:31:07.229Z,26.2
2023-03-26T00:32:09.281Z,26.2
2023-03-26T00:33:11.259Z,26.2
2023-03-26T00:34:13.479Z,26.2
2023-03-26T00:35:15.240Z,26.2
2023-03-26T00:36:16.988Z,26.2
2023-03-26T00:37:18.939Z,26.1
2023-03-26T00:38:20.830Z,26.1
2023-03-26T00:39:22.698Z,26.1
2023-03-26T00:40:24.657Z,26.1
2023-03-26T00:41:26.681Z,26.1
2023-03-26T00:42:28.810Z,26.1
2023-03-26T00:43:30.606Z,26
2023-03-26T00:44:32.504Z,26
2023-03-26T00:45:34.428Z,26
2023-03-26T00:46:36.352Z,26
2023-03-26T00:47:38.634Z,26
2023-03-26T00:48:44.831Z,26
2023-03-26T00:49:47.892Z,26
2023-03-26T00:50:49.634Z,26
2023-03-26T00:51:51.496Z,26
2023-03-26T00:52:53.323Z,26
2023-03-26T00:53:55.197Z,26
2023-03-26T00:54:57.099Z,26
2023-03-26T00:55:58.994Z,26
2023-03-26T00:57:00.743Z,26
2023-03-26T00:58:02.806Z,26
2023-03-26T00:59:04.722Z,26
2023-03-26T01:00:06.604Z,26
2023-03-26T01:01:08.651Z,26
2023-03-26T01:02:10.863Z,26
2023-03-26T01:03:17.272Z,26
2023-03-26T01:04:30.959Z,26
2023-03-26T01:05:34.587Z,26
2023-03-26T01:06:36.860Z,26
2023-03-26T01:07:38.796Z,26
2023-03-26T01:08:40.663Z,26
2023-03-26T01:09:42.397Z,26
2023-03-26T01:10:44.429Z,26
2023-03-26T01:11:46.371Z,26
2023-03-26T01:12:48.252Z,26
2023-03-26T01:13:50.123Z,26
2023-03-26T01:14:52.103Z,26
2023-03-26T01:15:54.204Z,26
2023-03-26T01:16:56.801Z,26
2023-03-26T01:17:58.664Z,26
2023-03-26T01:19:00.955Z,26
2023-03-26T01:20:02.877Z,26
2023-03-26T01:21:04.898Z,26
2023-03-26T01:22:07.014Z,26.1
2023-03-26T01:23:08.910Z,26
2023-03-26T01:24:10.755Z,26
2023-03-26T01:25:12.591Z,26
2023-03-26T01:26:14.461Z,26
2023-03-26T01:27:16.364Z,26
2023-03-26T01:28:18.262Z,26
2023-03-26T01:29:20.034Z,26
2023-03-26T01:30:21.932Z,26
2023-03-26T01:31:23.782Z,26
2023-03-26T01:32:25.741Z,26
2023-03-26T01:33:28.206Z,26
2023-03-26T01:34:30.597Z,26
2023-03-26T01:35:32.508Z,26
2023-03-26T01:36:34.702Z,26
2023-03-26T01:37:36.556Z,26
2023-03-26T01:38:38.387Z,26
2023-03-26T01:39:40.266Z,26
2023-03-26T01:40:42.139Z,26
2023-03-26T01:41:44.550Z,26
2023-03-26T01:42:46.410Z,25.9
2023-03-26T01:43:48.323Z,25.9
2023-03-26T01:44:50.263Z,25.9
2023-03-26T01:45:52.275Z,26
2023-03-26T01:46:55.181Z,25.9
2023-03-26T01:47:57.322Z,26
2023-03-26T01:48:59.525Z,26
2023-03-26T01:50:01.419Z,26
2023-03-26T01:51:03.307Z,26
2023-03-26T01:52:05.224Z,26
2023-03-26T01:53:07.162Z,26
2023-03-26T01:54:09.013Z,26
2023-03-26T01:55:10.872Z,26
2023-03-26T01:56:12.742Z,26
2023-03-26T01:57:14.777Z,26
2023-03-26T01:58:16.716Z,26
2023-03-26T01:59:18.574Z,26
2023-03-26T02:00:20.443Z,26
2023-03-26T02:01:22.427Z,26
2023-03-26T02:02:24.680Z,26
2023-03-26T02:03:27.033Z,26
2023-03-26T02:04:29.261Z,25.9
2023-03-26T02:05:31.160Z,25.9
2023-03-26T02:06:33.083Z,25.9
2023-03-26T02:07:35.050Z,25.9
2023-03-26T02:08:36.959Z,25.9
2023-03-26T02:09:38.948Z,25.9
2023-03-26T02:10:40.774Z,25.9
2023-03-26T02:11:42.702Z,25.9
2023-03-26T02:12:44.574Z,25.9
2023-03-26T02:13:46.436Z,25.9
2023-03-26T02:14:48.309Z,25.9
2023-03-26T02:15:50.284Z,25.9
2023-03-26T02:16:52.177Z,25.9
2023-03-26T02:17:54.152Z,25.9
2023-03-26T02:18:56.480Z,25.9
2023-03-26T02:19:58.417Z,25.9
2023-03-26T02:21:00.304Z,25.9
2023-03-26T02:22:02.178Z,25.9
2023-03-26T02:23:03.992Z,25.9
2023-03-26T02:24:05.782Z,25.9
2023-03-26T02:25:07.671Z,25.9
2023-03-26T02:26:09.556Z,25.9
2023-03-26T02:27:11.388Z,25.9
2023-03-26T02:28:13.236Z,25.9
2023-03-26T02:29:15.138Z,25.9
2023-03-26T02:30:17.041Z,25.9
2023-03-26T02:31:18.835Z,25.9
2023-03-26T02:32:20.835Z,25.9
2023-03-26T02:33:22.790Z,25.8
2023-03-26T02:34:24.655Z,25.8
2023-03-26T02:35:26.607Z,25.8
2023-03-26T02:36:28.804Z,25.8
2023-03-26T02:37:31.313Z,25.8
2023-03-26T02:38:33.215Z,25.8
2023-03-26T02:39:35.442Z,25.8
2023-03-26T02:40:37.279Z,25.8
2023-03-26T02:41:39.150Z,25.8
2023-03-26T02:42:41.074Z,25.8
2023-03-26T02:43:42.944Z,25.8
2023-03-26T02:44:44.856Z,25.8
2023-03-26T02:45:46.810Z,25.8
2023-03-26T02:46:48.949Z,25.8
2023-03-26T02:47:50.716Z,25.8
2023-03-26T02:48:52.750Z,25.8
2023-03-26T02:49:54.747Z,25.8
2023-03-26T02:50:56.481Z,25.8
2023-03-26T02:51:58.348Z,25.8
2023-03-26T02:53:00.218Z,25.8
2023-03-26T02:54:02.042Z,25.8
2023-03-26T02:55:03.957Z,25.8
2023-03-26T02:56:05.855Z,25.8
2023-03-26T02:57:07.749Z,25.8
2023-03-26T02:58:09.811Z,25.8
2023-03-26T02:59:11.782Z,25.8
2023-03-26T03:00:13.655Z,25.8
2023-03-26T03:01:15.556Z,25.8
2023-03-26T03:02:17.558Z,25.8
2023-03-26T03:03:19.636Z,25.8
2023-03-26T03:04:21.722Z,25.8
2023-03-26T03:05:23.577Z,25.8
2023-03-26T03:06:25.478Z,25.8
2023-03-26T03:07:27.344Z,25.8
2023-03-26T03:08:29.232Z,25.8
2023-03-26T03:09:31.132Z,25.8
2023-03-26T03:10:33.031Z,25.8
2023-03-26T03:11:34.899Z,25.8
2023-03-26T03:12:36.786Z,25.8
2023-03-26T03:13:38.659Z,25.8
2023-03-26T03:14:40.603Z,25.8
2023-03-26T03:15:42.477Z,25.8
2023-03-26T03:16:44.421Z,25.8
2023-03-26T03:17:46.510Z,25.8
2023-03-26T03:18:48.491Z,25.8
2023-03-26T03:19:50.355Z,25.8
2023-03-26T03:20:52.256Z,25.7
2023-03-26T03:21:54.159Z,25.8
2023-03-26T03:22:56.030Z,25.7
2023-03-26T03:23:59.901Z,25.7
2023-03-26T03:25:02.476Z,25.7
2023-03-26T03:26:04.392Z,25.8
2023-03-26T03:27:06.276Z,25.8
2023-03-26T03:28:08.021Z,25.7
2023-03-26T03:29:09.866Z,25.7
2023-03-26T03:30:11.657Z,25.7
2023-03-26T03:31:13.642Z,25.7
2023-03-26T03:32:15.621Z,25.7
2023-03-26T03:33:17.512Z,25.7
2023-03-26T03:34:19.226Z,25.7
2023-03-26T03:35:21.096Z,25.7
2023-03-26T03:36:22.987Z,25.7
2023-03-26T03:37:24.870Z,25.7
2023-03-26T03:38:26.740Z,25.7
2023-03-26T03:39:28.526Z,25.7
2023-03-26T03:40:30.425Z,25.7
2023-03-26T03:41:32.495Z,25.7
2023-03-26T03:42:34.226Z,25.7
2023-03-26T03:43:36.088Z,25.7
2023-03-26T03:44:37.931Z,25.7
2023-03-26T03:45:39.679Z,25.7
2023-03-26T03:46:41.617Z,25.7
2023-03-26T03:47:43.719Z,25.6
2023-03-26T03:48:45.636Z,25.7
2023-03-26T03:49:47.410Z,25.7
2023-03-26T03:50:49.231Z,25.7
2023-03-26T03:51:51.117Z,25.7
2023-03-26T03:52:52.844Z,25.7
2023-03-26T03:53:54.880Z,25.6
2023-03-26T03:54:56.698Z,25.6
2023-03-26T03:55:58.745Z,25.6
2023-03-26T03:57:00.614Z,25.6
2023-03-26T03:58:02.529Z,25.6
2023-03-26T03:59:04.158Z,25.6
2023-03-26T04:00:06.936Z,25.7
2023-03-26T04:01:08.816Z,25.7
2023-03-26T04:02:10.702Z,25.7
2023-03-26T04:03:12.909Z,25.7
2023-03-26T04:04:15.292Z,25.7
2023-03-26T04:05:17.290Z,25.7
2023-03-26T04:06:19.253Z,25.7
2023-03-26T04:07:21.206Z,25.6
2023-03-26T04:08:23.328Z,25.6
2023-03-26T04:09:25.409Z,25.6
2023-03-26T04:10:27.192Z,25.6
2023-03-26T04:11:29.107Z,25.6
2023-03-26T04:12:30.984Z,25.6
2023-03-26T04:13:32.958Z,25.6
2023-03-26T04:14:34.863Z,25.6
2023-03-26T04:15:36.673Z,25.6
2023-03-26T04:16:38.562Z,25.6
2023-03-26T04:17:40.442Z,25.6
2023-03-26T04:18:42.525Z,25.6
2023-03-26T04:19:44.526Z,25.6
2023-03-26T04:20:46.509Z,25.6
2023-03-26T04:21:48.730Z,25.6
2023-03-26T04:22:50.480Z,25.6
2023-03-26T04:23:52.358Z,25.6
2023-03-26T04:24:54.241Z,25.6
2023-03-26T04:25:56.586Z,25.6
2023-03-26T04:26:59.106Z,25.6
2023-03-26T04:28:01.058Z,25.6
2023-03-26T04:29:02.904Z,25.6
2023-03-26T04:30:04.781Z,25.6
2023-03-26T04:31:06.680Z,25.6
2023-03-26T04:32:08.555Z,25.6
2023-03-26T04:33:10.406Z,25.6
2023-03-26T04:34:12.160Z,25.6
2023-03-26T04:35:14.017Z,25.6
2023-03-26T04:36:15.922Z,25.6
2023-03-26T04:37:17.709Z,25.6
2023-03-26T04:38:19.492Z,25.6
2023-03-26T04:39:21.413Z,25.6
2023-03-26T04:40:23.265Z,25.6
2023-03-26T04:41:25.096Z,25.6
2023-03-26T04:42:27.023Z,25.6
2023-03-26T04:43:28.886Z,25.6
2023-03-26T04:44:30.756Z,25.6
2023-03-26T04:45:32.511Z,25.6
2023-03-26T04:46:34.430Z,25.6
2023-03-26T04:47:36.484Z,25.6
2023-03-26T04:48:38.917Z,25.6
2023-03-26T04:49:40.819Z,25.6
2023-03-26T04:50:42.744Z,25.6
2023-03-26T04:51:44.696Z,25.6
2023-03-26T04:52:46.594Z,25.6
2023-03-26T04:53:48.431Z,25.6
2023-03-26T04:54:50.364Z,25.6
2023-03-26T04:55:52.422Z,25.6
2023-03-26T04:56:55.398Z,25.6
2023-03-26T04:57:57.573Z,25.6
2023-03-26T04:58:59.390Z,25.6
2023-03-26T05:00:01.212Z,25.6
2023-03-26T05:01:10.077Z,25.6
2023-03-26T05:02:12.762Z,25.6
2023-03-26T05:03:14.503Z,25.6
2023-03-26T05:04:16.414Z,25.6
2023-03-26T05:05:18.788Z,25.6
2023-03-26T05:06:20.624Z,25.6
2023-03-26T05:07:22.526Z,25.6
2023-03-26T05:08:24.364Z,25.6
2023-03-26T05:09:26.283Z,25.6
2023-03-26T05:10:28.203Z,25.6
2023-03-26T05:11:30.208Z,25.6
2023-03-26T05:12:32.098Z,25.6
2023-03-26T05:13:33.916Z,25.6
2023-03-26T05:14:35.817Z,25.7
2023-03-26T05:15:37.741Z,25.7
2023-03-26T05:16:39.602Z,25.8
2023-03-26T05:17:41.758Z,25.9
2023-03-26T05:18:44.094Z,26
2023-03-26T05:19:45.871Z,26
2023-03-26T05:20:47.620Z,26
2023-03-26T05:21:49.498Z,26.1
2023-03-26T05:22:51.395Z,26.1
2023-03-26T05:23:53.244Z,26.1
2023-03-26T05:24:55.091Z,26.2
2023-03-26T05:25:56.903Z,26.2
2023-03-26T05:26:58.870Z,26.2
2023-03-26T05:28:00.762Z,26.2
2023-03-26T05:29:02.597Z,26.1
2023-03-26T05:30:04.450Z,26.1
2023-03-26T05:31:06.672Z,26.1
2023-03-26T05:32:08.561Z,26.1
2023-03-26T05:33:10.490Z,26.1
2023-03-26T05:34:12.767Z,26.1
2023-03-26T05:35:14.612Z,26.1
2023-03-26T05:36:16.493Z,26.1
2023-03-26T05:37:18.312Z,26.1
2023-03-26T05:38:20.100Z,26.1
2023-03-26T05:39:21.975Z,26.2
2023-03-26T05:40:23.773Z,26.2
2023-03-26T05:41:25.627Z,26.2
2023-03-26T05:42:27.478Z,26.3
2023-03-26T05:43:29.465Z,26.3
2023-03-26T05:44:31.460Z,26.3
2023-03-26T05:45:33.332Z,26.3
2023-03-26T05:46:35.193Z,26.4
2023-03-26T05:47:37.381Z,26.5
2023-03-26T05:48:39.629Z,26.5
2023-03-26T05:49:41.638Z,26.5
2023-03-26T05:50:43.506Z,26.6
2023-03-26T05:51:45.320Z,26.6
2023-03-26T05:52:47.197Z,26.6
2023-03-26T05:53:48.993Z,26.6
2023-03-26T05:54:50.904Z,26.7
2023-03-26T05:55:52.672Z,26.7
2023-03-26T05:56:54.528Z,26.7
2023-03-26T05:57:56.632Z,26.7
2023-03-26T05:58:58.525Z,26.7
2023-03-26T06:00:00.377Z,26.7
2023-03-26T06:01:02.290Z,26.7
2023-03-26T06:02:04.167Z,26.7
2023-03-26T06:03:06.172Z,26.7
2023-03-26T06:04:08.879Z,26.7
2023-03-26T06:05:11.104Z,26.7
2023-03-26T06:06:13.011Z,26.7
2023-03-26T06:07:14.915Z,26.7
2023-03-26T06:08:16.784Z,26.7
2023-03-26T06:09:18.641Z,26.7
2023-03-26T06:10:20.439Z,26.7
2023-03-26T06:11:22.344Z,26.7
2023-03-26T06:12:24.370Z,26.7
2023-03-26T06:13:26.880Z,26.8
2023-03-26T06:14:28.629Z,26.8
2023-03-26T06:15:30.472Z,26.8
2023-03-26T06:16:32.461Z,26.8
2023-03-26T06:17:34.748Z,26.9
2023-03-26T06:18:36.641Z,26.9
2023-03-26T06:19:38.566Z,26.9
2023-03-26T06:20:40.491Z,26.9
2023-03-26T06:21:42.378Z,26.9
2023-03-26T06:22:44.229Z,26.9
2023-03-26T06:23:46.086Z,26.9
2023-03-26T06:24:47.992Z,27
2023-03-26T06:25:49.776Z,27
2023-03-26T06:26:51.628Z,27
2023-03-26T06:27:53.532Z,27
2023-03-26T06:28:55.470Z,27
2023-03-26T06:29:57.205Z,27.1
2023-03-26T06:30:59.135Z,27.1
2023-03-26T06:32:09.345Z,27.1
2023-03-26T06:33:24.468Z,27.1
2023-03-26T06:34:26.598Z,27.2
2023-03-26T06:35:28.475Z,27.2
2023-03-26T06:36:30.296Z,27.2
2023-03-26T06:37:32.200Z,27.2
2023-03-26T06:38:34.007Z,27.3
2023-03-26T06:39:35.823Z,27.3
2023-03-26T06:40:37.689Z,27.3
2023-03-26T06:41:39.548Z,27.3
2023-03-26T06:43:06.623Z,27.3
2023-03-26T06:44:12.676Z,27.4
2023-03-26T06:45:14.599Z,27.4
2023-03-26T06:46:16.491Z,27.4
2023-03-26T06:47:18.646Z,27.4
2023-03-26T06:48:20.674Z,27.4
2023-03-26T06:49:22.491Z,27.4
2023-03-26T06:50:24.476Z,27.4
2023-03-26T06:51:26.606Z,27.5
2023-03-26T06:52:28.497Z,27.5
2023-03-26T06:53:30.658Z,27.5
2023-03-26T06:54:32.655Z,27.5
2023-03-26T06:55:34.447Z,27.5
2023-03-26T06:56:36.369Z,27.5
2023-03-26T06:57:38.219Z,27.5
2023-03-26T06:58:40.229Z,27.5
2023-03-26T06:59:42.124Z,27.5
2023-03-26T07:00:44.025Z,27.5
2023-03-26T07:01:46.845Z,27.6
2023-03-26T07:02:48.724Z,27.6
2023-03-26T07:03:50.828Z,27.6
2023-03-26T07:04:52.768Z,27.6
2023-03-26T07:05:54.661Z,27.6
2023-03-26T07:06:56.472Z,27.6
2023-03-26T07:07:58.357Z,27.6
2023-03-26T07:09:00.227Z,27.7
2023-03-26T07:10:02.061Z,27.7
2023-03-26T07:11:03.863Z,27.7
2023-03-26T07:12:05.754Z,27.7
2023-03-26T07:13:07.725Z,27.7
2023-03-26T07:14:09.567Z,27.7
2023-03-26T07:15:11.413Z,27.7
2023-03-26T07:16:13.326Z,27.7
2023-03-26T07:17:15.252Z,27.7
2023-03-26T07:18:17.068Z,27.8
2023-03-26T07:19:18.925Z,27.8
2023-03-26T07:20:20.861Z,27.8
2023-03-26T07:21:22.729Z,27.8
2023-03-26T07:22:24.577Z,27.8
2023-03-26T07:23:26.484Z,27.8
2023-03-26T07:24:28.632Z,27.8
2023-03-26T07:25:30.624Z,27.8
2023-03-26T07:26:32.693Z,27.8
2023-03-26T07:27:34.510Z,27.8
2023-03-26T07:28:36.418Z,27.8
2023-03-26T07:29:38.697Z,27.8
2023-03-26T07:30:40.609Z,27.9
2023-03-26T07:31:42.576Z,27.9
2023-03-26T07:32:44.678Z,27.9
2023-03-26T07:33:46.664Z,27.9
2023-03-26T07:34:48.458Z,27.9
2023-03-26T07:35:50.482Z,27.9
2023-03-26T07:36:52.514Z,27.9
2023-03-26T07:37:54.270Z,27.9
2023-03-26T07:38:56.120Z,27.9
2023-03-26T07:39:57.997Z,27.9
2023-03-26T07:40:59.893Z,27.9
2023-03-26T07:42:01.789Z,27.9
2023-03-26T07:43:03.615Z,27.9
2023-03-26T07:44:08.205Z,27.9
2023-03-26T07:45:10.039Z,28
2023-03-26T07:46:11.915Z,28
2023-03-26T07:47:13.812Z,28
2023-03-26T07:48:15.724Z,28
2023-03-26T07:49:17.796Z,28
2023-03-26T07:50:19.583Z,28
2023-03-26T07:51:21.823Z,28
2023-03-26T07:52:23.659Z,28
2023-03-26T07:53:25.498Z,28
2023-03-26T07:54:27.343Z,28
2023-03-26T07:55:29.197Z,28
2023-03-26T07:56:31.029Z,28
2023-03-26T07:57:33.283Z,28
2023-03-26T07:58:35.189Z,28
2023-03-26T07:59:37.002Z,28
2023-03-26T08:00:38.867Z,28
2023-03-26T08:01:40.721Z,28
2023-03-26T08:02:43.004Z,28
2023-03-26T08:03:45.588Z,28
2023-03-26T08:04:47.905Z,28
2023-03-26T08:05:50.682Z,28
2023-03-26T08:06:52.487Z,28
2023-03-26T08:07:54.372Z,28
2023-03-26T08:08:56.324Z,28
2023-03-26T08:09:58.249Z,28
2023-03-26T08:11:00.127Z,28
2023-03-26T08:12:01.862Z,28
2023-03-26T08:13:03.730Z,28
2023-03-26T08:14:05.762Z,28
2023-03-26T08:15:07.708Z,28
2023-03-26T08:16:09.604Z,28
2023-03-26T08:17:11.653Z,28
2023-03-26T08:18:13.508Z,28.1
2023-03-26T08:19:15.331Z,28.1
2023-03-26T08:20:17.159Z,28.1
2023-03-26T08:21:19.041Z,28.1
2023-03-26T08:22:20.788Z,28.1
2023-03-26T08:23:22.764Z,28.1
2023-03-26T08:24:24.751Z,28.1
2023-03-26T08:25:26.664Z,28.1
2023-03-26T08:26:28.489Z,28.1
2023-03-26T08:27:30.339Z,28.1
2023-03-26T08:28:32.184Z,28.1
2023-03-26T08:29:34.059Z,28.1
2023-03-26T08:30:35.879Z,28.1
2023-03-26T08:31:37.901Z,28.1
2023-03-26T08:32:40.338Z,28.1
2023-03-26T08:33:42.546Z,28.1
2023-03-26T08:34:44.413Z,28.1
2023-03-26T08:35:46.395Z,28.1
2023-03-26T08:36:48.589Z,28.1
2023-03-26T08:37:50.479Z,28
2023-03-26T08:38:52.452Z,28.1
2023-03-26T08:39:54.938Z,28.1
2023-03-26T08:40:57.234Z,28
2023-03-26T08:41:59.515Z,28
2023-03-26T08:43:01.354Z,28
2023-03-26T08:44:03.128Z,28
2023-03-26T08:45:04.964Z,27.9
2023-03-26T08:46:06.888Z,28
2023-03-26T08:47:08.883Z,27.9
2023-03-26T08:48:10.710Z,27.9
2023-03-26T08:49:12.488Z,27.9
2023-03-26T08:50:14.308Z,27.9
2023-03-26T08:51:16.453Z,27.9
2023-03-26T08:52:18.328Z,27.9
2023-03-26T08:53:20.174Z,27.9
2023-03-26T08:54:22.321Z,27.9
2023-03-26T08:55:24.175Z,27.9
2023-03-26T08:56:26.040Z,27.9
2023-03-26T08:57:27.923Z,27.9
2023-03-26T08:58:29.838Z,27.9
2023-03-26T08:59:31.675Z,27.9
2023-03-26T09:00:33.602Z,27.9
2023-03-26T09:01:35.516Z,27.9
2023-03-26T09:02:37.581Z,27.9
2023-03-26T09:03:39.668Z,27.9
2023-03-26T09:04:41.655Z,27.9
2023-03-26T09:05:43.603Z,27.9
2023-03-26T09:06:45.442Z,27.9
2023-03-26T09:07:47.201Z,27.9
2023-03-26T09:08:53.586Z,27.9
2023-03-26T09:09:56.532Z,28
2023-03-26T09:10:58.459Z,28
2023-03-26T09:12:00.334Z,28
2023-03-26T09:13:02.195Z,28
2023-03-26T09:14:04.038Z,28
2023-03-26T09:15:05.891Z,28
2023-03-26T09:16:07.821Z,28
2023-03-26T09:17:09.887Z,28
2023-03-26T09:18:11.781Z,28
2023-03-26T09:19:13.895Z,28
2023-03-26T09:20:15.850Z,28
2023-03-26T09:21:17.705Z,28
2023-03-26T09:22:19.761Z,28
2023-03-26T09:23:21.604Z,28
2023-03-26T09:24:23.454Z,28
2023-03-26T09:25:25.387Z,28
2023-03-26T09:26:27.252Z,28
2023-03-26T09:27:29.109Z,28
2023-03-26T09:28:30.966Z,28
2023-03-26T09:29:33.187Z,28
2023-03-26T09:30:35.161Z,28
2023-03-26T09:31:37.040Z,28
2023-03-26T09:32:39.314Z,28
2023-03-26T09:33:41.348Z,28
2023-03-26T09:34:43.281Z,28
2023-03-26T09:35:45.367Z,28
2023-03-26T09:36:47.404Z,28
2023-03-26T09:37:56.511Z,28
2023-03-26T09:39:00.416Z,28
2023-03-26T09:40:02.337Z,28
2023-03-26T09:41:04.225Z,28
2023-03-26T09:42:06.090Z,28
2023-03-26T09:43:07.930Z,27.9
2023-03-26T09:44:09.870Z,27.9
2023-03-26T09:45:11.780Z,27.9
2023-03-26T09:46:13.658Z,27.9
2023-03-26T09:47:15.729Z,27.9
2023-03-26T09:48:17.697Z,27.9
2023-03-26T09:49:19.586Z,27.9
2023-03-26T09:50:22.267Z,27.9
2023-03-26T09:51:26.122Z,27.9
2023-03-26T09:52:29.481Z,27.9
2023-03-26T09:53:31.339Z,27.9
2023-03-26T09:54:33.093Z,27.9
2023-03-26T09:55:34.944Z,27.9
2023-03-26T09:56:38.441Z,27.9
2023-03-26T09:57:41.668Z,27.9
2023-03-26T09:58:43.862Z,27.9
2023-03-26T09:59:45.668Z,27.9
2023-03-26T10:00:47.598Z,27.9
2023-03-26T10:01:49.627Z,27.9
2023-03-26T10:02:51.484Z,27.9
2023-03-26T10:03:53.424Z,27.9
2023-03-26T10:04:55.881Z,27.9
2023-03-26T10:05:57.974Z,27.9
2023-03-26T10:06:59.815Z,27.9
2023-03-26T10:08:01.925Z,27.9
2023-03-26T10:09:03.893Z,27.9
2023-03-26T10:10:05.749Z,27.9
2023-03-26T10:11:07.623Z,27.9
2023-03-26T10:12:09.414Z,28
2023-03-26T10:13:14.742Z,28
2023-03-26T10:14:16.947Z,28
2023-03-26T10:15:18.804Z,28
2023-03-26T10:16:20.794Z,28
2023-03-26T10:17:22.796Z,28
2023-03-26T10:18:26.937Z,28
2023-03-26T10:19:31.814Z,28
2023-03-26T10:20:33.759Z,28
2023-03-26T10:21:35.631Z,28
2023-03-26T10:22:37.558Z,28
2023-03-26T10:23:39.524Z,28
2023-03-26T10:24:41.378Z,28
2023-03-26T10:25:43.151Z,28
2023-03-26T10:27:08.128Z,28
2023-03-26T10:28:12.787Z,28
2023-03-26T10:29:14.684Z,28
2023-03-26T10:30:16.530Z,28
2023-03-26T10:31:18.473Z,28
2023-03-26T10:32:20.536Z,28
2023-03-26T10:33:23.975Z,28
2023-03-26T10:34:28.340Z,28
2023-03-26T10:35:31.586Z,28
2023-03-26T10:36:33.668Z,28
2023-03-26T10:37:35.524Z,28
2023-03-26T10:38:37.456Z,28
2023-03-26T10:39:40.678Z,28
2023-03-26T10:40:45.285Z,28
2023-03-26T10:41:47.115Z,28
2023-03-26T10:42:48.969Z,28
2023-03-26T10:43:58.012Z,28
2023-03-26T10:45:10.794Z,28
2023-03-26T10:46:12.669Z,28
2023-03-26T10:47:14.730Z,28.1
2023-03-26T10:48:16.552Z,28
2023-03-26T10:49:18.438Z,28
2023-03-26T10:50:22.891Z,28
2023-03-26T10:51:25.674Z,28
2023-03-26T10:52:27.437Z,28
2023-03-26T10:53:29.284Z,28
2023-03-26T10:54:31.211Z,28
2023-03-26T10:55:33.195Z,28
2023-03-26T10:56:35.045Z,28
2023-03-26T10:57:37.086Z,28
2023-03-26T10:58:48.667Z,28
2023-03-26T10:59:52.307Z,28
2023-03-26T11:00:54.332Z,28
2023-03-26T11:01:56.862Z,28.1
2023-03-26T11:02:59.063Z,28.1
2023-03-26T11:04:01.032Z,28.1
2023-03-26T11:05:03.010Z,28.1
2023-03-26T11:06:05.058Z,28.1
2023-03-26T11:07:06.800Z,28.1
2023-03-26T11:08:10.750Z,28.1
2023-03-26T11:09:12.496Z,28.1
2023-03-26T11:10:14.448Z,28.1
2023-03-26T11:11:16.291Z,28.1
2023-03-26T11:12:25.378Z,28.1
2023-03-26T11:13:30.348Z,28.1
2023-03-26T11:14:35.057Z,28.1
2023-03-26T11:15:37.366Z,28.1
2023-03-26T11:16:39.475Z,28.1
2023-03-26T11:17:41.762Z,28.1
2023-03-26T11:18:43.906Z,28.1
2023-03-26T11:19:45.815Z,28.1
2023-03-26T11:20:47.706Z,28.1
2023-03-26T11:21:49.554Z,28.1
2023-03-26T11:22:51.410Z,28.1
2023-03-26T11:24:04.416Z,28.1
2023-03-26T11:25:08.204Z,28.1
2023-03-26T11:26:10.087Z,28.1
2023-03-26T11:27:14.774Z,28.1
2023-03-26T11:28:26.258Z,28.1
2023-03-26T11:29:31.989Z,28.2
2023-03-26T11:35:40.060Z,28.5
2023-03-26T11:36:43.819Z,28.5
2023-03-26T11:37:45.549Z,28.5
2023-03-26T11:38:47.520Z,28.4
2023-03-26T11:39:49.382Z,28.4
2023-03-26T11:40:51.216Z,28.4
2023-03-26T11:41:53.210Z,28.3
2023-03-26T11:42:55.131Z,28.3
2023-03-26T11:43:56.975Z,28.3
2023-03-26T11:44:59.000Z,28.3
2023-03-26T11:46:00.798Z,28.3
2023-03-26T11:47:02.798Z,28.3
2023-03-26T11:48:04.724Z,28.2
2023-03-26T11:49:06.759Z,28.2
2023-03-26T11:50:08.593Z,28.2
2023-03-26T11:51:10.351Z,28.2
2023-03-26T11:52:12.378Z,28.2
2023-03-26T11:53:14.246Z,28.2
2023-03-26T11:54:16.098Z,28.2
2023-03-26T11:55:17.966Z,28.2
2023-03-26T11:56:20.076Z,28.2
2023-03-26T11:57:21.986Z,28.2
2023-03-26T11:58:24.002Z,28.2
2023-03-26T11:59:25.743Z,28.2
2023-03-26T12:00:27.746Z,28.2
2023-03-26T12:01:29.723Z,28.2
2023-03-26T12:02:31.615Z,28.2
2023-03-26T12:03:34.352Z,28.2
2023-03-26T12:04:36.160Z,28.2
2023-03-26T12:05:38.188Z,28.2
2023-03-26T12:06:40.022Z,28.2
2023-03-26T12:07:42.023Z,28.2
2023-03-26T12:08:43.937Z,28.2
2023-03-26T12:09:45.776Z,28.2
2023-03-26T12:10:47.641Z,28.2
2023-03-26T12:11:49.482Z,28.2
2023-03-26T12:12:51.397Z,28.2
2023-03-26T12:13:53.287Z,28.2
2023-03-26T12:14:55.119Z,28.2
2023-03-26T12:15:57.015Z,28.2
2023-03-26T12:16:59.157Z,28.2
2023-03-26T12:18:01.262Z,28.2
2023-03-26T12:19:03.344Z,28.2
2023-03-26T12:20:05.189Z,28.2
2023-03-26T12:21:08.274Z,28.2
2023-03-26T12:22:11.090Z,28.2
2023-03-26T12:23:13.004Z,28.2
2023-03-26T12:24:14.892Z,28.2
2023-03-26T12:25:16.709Z,28.2
2023-03-26T12:26:18.571Z,28.2
2023-03-26T12:27:20.411Z,28.2
2023-03-26T12:28:22.350Z,28.2
2023-03-26T12:29:24.348Z,28.2
2023-03-26T12:30:26.264Z,28.2
2023-03-26T12:31:28.140Z,28.2
2023-03-26T12:32:43.109Z,28.2
2023-03-26T12:33:48.777Z,28.2
2023-03-26T12:34:50.716Z,28.2
2023-03-26T12:35:52.632Z,28.2
2023-03-26T12:36:54.652Z,28.2
2023-03-26T12:37:56.614Z,28.2
2023-03-26T12:39:16.102Z,28.2
2023-03-26T12:42:36.824Z,28.3
2023-03-26T12:46:44.336Z,28.6
2023-03-26T12:49:06.367Z,28.6
2023-03-26T12:50:08.886Z,28.6
2023-03-26T12:51:10.838Z,28.6
2023-03-26T12:52:12.688Z,28.5
2023-03-26T12:53:14.604Z,28.5
2023-03-26T12:54:16.490Z,28.4
2023-03-26T12:55:18.339Z,28.4
2023-03-26T12:56:20.111Z,28.4
2023-03-26T12:57:22.156Z,28.4
2023-03-26T12:58:24.253Z,28.3
2023-03-26T12:59:26.052Z,28.3
2023-03-26T13:00:27.906Z,28.3
2023-03-26T13:01:29.819Z,28.3
2023-03-26T13:02:31.974Z,28.3
2023-03-26T13:03:34.429Z,28.3
2023-03-26T13:04:36.433Z,28.3
2023-03-26T13:05:38.287Z,28.3
2023-03-26T13:06:48.446Z,28.3
2023-03-26T13:08:04.374Z,28.3
2023-03-26T13:09:06.251Z,28.4
2023-03-26T13:10:08.136Z,28.4
2023-03-26T13:11:09.953Z,28.4
2023-03-26T13:12:11.814Z,28.3
2023-03-26T13:13:13.718Z,28.3
2023-03-26T13:14:15.609Z,28.3
2023-03-26T13:15:17.465Z,28.3
2023-03-26T13:16:19.434Z,28.3
2023-03-26T13:17:21.715Z,28.3
2023-03-26T13:18:23.898Z,28.3
2023-03-26T13:19:25.783Z,28.3
2023-03-26T13:20:27.613Z,28.3
2023-03-26T13:21:29.483Z,28.3
2023-03-26T13:22:31.387Z,28.3
2023-03-26T13:23:33.285Z,28.3
2023-03-26T13:24:35.027Z,28.3
2023-03-26T13:25:36.881Z,28.3
2023-03-26T13:26:38.745Z,28.3
2023-03-26T13:27:40.537Z,28.3
2023-03-26T13:28:42.434Z,28.2
2023-03-26T13:29:44.277Z,28.2
2023-03-26T13:30:46.167Z,28.2
2023-03-26T13:31:47.984Z,28.2
2023-03-26T13:32:49.895Z,28.3
2023-03-26T13:33:51.986Z,28.3
2023-03-26T13:34:53.843Z,28.3
2023-03-26T13:36:03.428Z,28.3
2023-03-26T13:37:26.524Z,28.3
2023-03-26T13:38:28.461Z,28.3
2023-03-26T13:39:30.318Z,28.3
2023-03-26T13:40:32.173Z,28.3
2023-03-26T13:41:34.016Z,28.3
2023-03-26T13:42:35.819Z,28.3
2023-03-26T13:43:37.656Z,28.3
2023-03-26T13:44:39.576Z,28.3
2023-03-26T13:45:41.359Z,28.3
2023-03-26T13:46:43.282Z,28.3
2023-03-26T13:47:45.357Z,28.3
2023-03-26T13:48:47.576Z,28.3
2023-03-26T13:49:49.533Z,28.3
2023-03-26T13:50:52.374Z,28.3
2023-03-26T13:51:54.882Z,28.3
2023-03-26T13:52:56.722Z,28.3
2023-03-26T13:53:58.623Z,28.3
2023-03-26T13:55:00.540Z,28.3
2023-03-26T13:56:02.531Z,28.3
2023-03-26T13:57:04.443Z,28.3
2023-03-26T13:58:06.520Z,28.3
2023-03-26T13:59:08.664Z,28.3
2023-03-26T14:00:10.654Z,28.3
2023-03-26T14:01:12.978Z,28.3
2023-03-26T14:02:14.921Z,28.3
2023-03-26T14:03:16.768Z,28.3
2023-03-26T14:04:18.755Z,28.3
2023-03-26T14:05:20.746Z,28.3
2023-03-26T14:06:23.127Z,28.2
2023-03-26T14:07:24.996Z,28.3
2023-03-26T14:08:26.838Z,28.2
2023-03-26T14:09:28.693Z,28.2
2023-03-26T14:10:30.539Z,28.2
2023-03-26T14:11:32.564Z,28.2
2023-03-26T14:12:34.455Z,28.2
2023-03-26T14:13:36.282Z,28.2
2023-03-26T14:14:38.213Z,28.2